createdAt,value
2019-06-20T00:00:32.080Z,0.17
2019-06-20T00:01:32.084Z,0.01
2019-06-20T00:02:32.029Z,0.01
2019-06-20T00:03:32.075Z,0.00
2019-06-20T00:04:32.075Z,0.01
2019-06-20T00:05:32.062Z,0.04
2019-06-20T00:06:32.109Z,0.00
2019-06-20T00:07:32.087Z,0.00
2019-06-20T00:08:32.061Z,0.02
2019-06-20T00:09:32.109Z,0.33
2019-06-20T00:10:32.065Z,0.30
2019-06-20T00:11:32.028Z,0.18
2019-06-20T00:12:32.087Z,0.10
2019-06-20T00:13:32.080Z,0.04
2019-06-20T00:14:32.041Z,0.00
2019-06-20T00:15:32.111Z,0.00
2019-06-20T00:16:32.064Z,0.21
2019-06-20T00:17:32.040Z,0.35
2019-06-20T00:18:32.102Z,0.04
2019-06-20T00:19:32.111Z,0.04
2019-06-20T00:20:32.145Z,0.41
2019-06-20T00:21:32.124Z,0.30
2019-06-20T00:22:32.074Z,0.85
2019-06-20T00:23:32.070Z,0.08
2019-06-20T00:24:32.123Z,0.01
2019-06-20T00:25:32.145Z,0.00
2019-06-20T00:26:32.072Z,0.06
2019-06-20T00:27:32.085Z,0.00
2019-06-20T00:28:32.076Z,0.00
2019-06-20T00:29:32.077Z,0.00
2019-06-20T00:30:32.109Z,0.00
2019-06-20T00:31:32.122Z,0.00
2019-06-20T00:32:32.077Z,0.00
2019-06-20T00:33:32.098Z,0.00
2019-06-20T00:34:32.176Z,0.00
2019-06-20T00:35:32.101Z,0.11
2019-06-20T00:36:32.123Z,0.04
2019-06-20T00:37:32.149Z,0.00
2019-06-20T00:38:32.085Z,0.00
2019-06-20T00:39:32.117Z,0.06
2019-06-20T00:40:32.101Z,0.03
2019-06-20T00:41:32.109Z,0.00
2019-06-20T00:42:32.171Z,0.00
2019-06-20T00:43:32.154Z,0.00
2019-06-20T00:44:32.104Z,0.00
2019-06-20T00:45:32.124Z,0.00
2019-06-20T00:46:32.103Z,0.00
2019-06-20T00:47:32.074Z,0.09
2019-06-20T00:48:32.168Z,1.17
2019-06-20T00:49:32.155Z,0.78
2019-06-20T00:50:32.089Z,0.59
2019-06-20T00:51:32.142Z,0.31
2019-06-20T00:52:32.112Z,0.62
2019-06-20T00:53:32.077Z,0.44
2019-06-20T00:54:32.158Z,0.03
2019-06-20T00:55:32.160Z,0.00
2019-06-20T00:56:32.089Z,0.00
2019-06-20T00:57:32.127Z,0.00
2019-06-20T00:58:32.107Z,0.00
2019-06-20T00:59:32.142Z,0.00
2019-06-20T01:00:32.163Z,0.00
2019-06-20T01:01:32.166Z,0.00
2019-06-20T01:02:32.083Z,0.00
2019-06-20T01:03:32.095Z,0.09
2019-06-20T01:04:32.121Z,0.00
2019-06-20T01:05:32.109Z,0.00
2019-06-20T01:06:32.144Z,0.00
2019-06-20T01:07:32.145Z,0.00
2019-06-20T01:08:32.086Z,0.00
2019-06-20T01:09:32.147Z,0.00
2019-06-20T01:10:32.122Z,0.00
2019-06-20T01:11:32.078Z,0.00
2019-06-20T01:12:32.148Z,0.00
2019-06-20T01:13:34.154Z,0.01
2019-06-20T01:14:32.118Z,0.16
2019-06-20T01:15:32.200Z,0.00
2019-06-20T01:16:32.122Z,0.00
2019-06-20T01:17:32.124Z,0.11
2019-06-20T01:18:32.183Z,0.00
2019-06-20T01:19:32.212Z,0.72
2019-06-20T01:20:32.117Z,0.38
2019-06-20T01:21:32.168Z,0.02
2019-06-20T01:22:32.155Z,0.00
2019-06-20T01:23:32.141Z,0.00
2019-06-20T01:24:32.151Z,0.00
2019-06-20T01:25:32.182Z,0.26
2019-06-20T01:26:32.130Z,0.42
2019-06-20T01:27:32.193Z,0.21
2019-06-20T01:28:32.167Z,0.58
2019-06-20T01:29:32.130Z,0.72
2019-06-20T01:30:32.153Z,0.82
2019-06-20T01:31:32.175Z,0.52
2019-06-20T01:32:32.155Z,0.54
2019-06-20T01:33:32.137Z,0.42
2019-06-20T01:34:32.196Z,0.11
2019-06-20T01:35:32.143Z,0.07
2019-06-20T01:36:32.199Z,0.20
2019-06-20T01:37:32.178Z,0.00
2019-06-20T01:38:32.150Z,0.40
2019-06-20T01:39:32.170Z,0.00
2019-06-20T01:40:32.144Z,0.15
2019-06-20T01:41:32.161Z,0.00
2019-06-20T01:42:32.153Z,0.30
2019-06-20T01:43:32.217Z,0.56
2019-06-20T01:44:32.139Z,0.03
2019-06-20T01:45:32.180Z,0.00
2019-06-20T01:46:32.189Z,0.14
2019-06-20T01:47:32.166Z,0.51
2019-06-20T01:48:32.223Z,0.02
2019-06-20T01:49:32.215Z,0.00
2019-06-20T01:50:32.158Z,0.12
2019-06-20T01:51:32.179Z,0.21
2019-06-20T01:52:32.181Z,0.21
2019-06-20T01:53:32.156Z,0.07
2019-06-20T01:54:32.219Z,0.35
2019-06-20T01:55:32.234Z,0.00
2019-06-20T01:56:32.151Z,0.00
2019-06-20T01:57:32.215Z,0.00
2019-06-20T01:58:32.194Z,0.02
2019-06-20T01:59:32.147Z,0.02
2019-06-20T02:00:32.193Z,0.00
2019-06-20T02:01:32.224Z,0.00
2019-06-20T02:02:32.143Z,0.00
2019-06-20T02:03:32.223Z,0.00
2019-06-20T02:04:32.170Z,0.00
2019-06-20T02:05:32.177Z,0.35
2019-06-20T02:06:32.241Z,0.41
2019-06-20T02:07:32.205Z,0.16
2019-06-20T02:08:32.179Z,0.00
2019-06-20T02:09:32.197Z,0.00
2019-06-20T02:10:32.218Z,0.00
2019-06-20T02:11:32.195Z,0.00
2019-06-20T02:12:32.198Z,0.09
2019-06-20T02:13:32.214Z,0.01
2019-06-20T02:14:32.183Z,0.06
2019-06-20T02:15:32.185Z,0.05
2019-06-20T02:16:32.210Z,0.00
2019-06-20T02:17:32.157Z,0.39
2019-06-20T02:18:32.215Z,0.01
2019-06-20T02:19:32.227Z,0.00
2019-06-20T02:20:32.177Z,0.00
2019-06-20T02:21:32.226Z,0.00
2019-06-20T02:22:32.219Z,0.04
2019-06-20T02:23:32.197Z,0.01
2019-06-20T02:24:32.223Z,1.32
2019-06-20T02:25:32.229Z,1.56
2019-06-20T02:26:32.205Z,1.30
2019-06-20T02:27:32.233Z,1.03
2019-06-20T02:28:32.227Z,1.28
2019-06-20T02:29:32.200Z,1.49
2019-06-20T02:30:32.232Z,1.40
2019-06-20T02:31:32.251Z,0.86
2019-06-20T02:32:32.207Z,0.64
2019-06-20T02:33:32.227Z,0.00
2019-06-20T02:34:32.221Z,0.00
2019-06-20T02:35:32.188Z,0.00
2019-06-20T02:36:32.265Z,0.00
2019-06-20T02:37:32.225Z,0.00
2019-06-20T02:38:32.167Z,0.00
2019-06-20T02:39:32.241Z,0.00
2019-06-20T02:40:32.213Z,0.00
2019-06-20T02:41:32.281Z,0.00
2019-06-20T02:42:32.238Z,0.07
2019-06-20T02:43:32.257Z,0.12
2019-06-20T02:44:32.237Z,0.69
2019-06-20T02:45:32.246Z,0.11
2019-06-20T02:46:32.212Z,0.00
2019-06-20T02:47:32.191Z,0.00
2019-06-20T02:48:32.271Z,0.00
2019-06-20T02:49:32.248Z,0.05
2019-06-20T02:50:32.204Z,0.10
2019-06-20T02:51:32.258Z,0.84
2019-06-20T02:52:32.234Z,0.59
2019-06-20T02:53:32.193Z,0.87
2019-06-20T02:54:32.274Z,0.21
2019-06-20T02:55:32.254Z,0.00
2019-06-20T02:56:32.207Z,0.00
2019-06-20T02:57:32.258Z,0.00
2019-06-20T02:58:32.241Z,0.00
2019-06-20T02:59:32.216Z,0.12
2019-06-20T03:00:32.251Z,0.65
2019-06-20T03:01:32.273Z,0.23
2019-06-20T03:02:32.204Z,0.40
2019-06-20T03:03:32.277Z,0.06
2019-06-20T03:04:32.266Z,0.09
2019-06-20T03:05:32.245Z,0.00
2019-06-20T03:06:32.282Z,0.00
2019-06-20T03:07:32.260Z,0.00
2019-06-20T03:08:32.231Z,0.00
2019-06-20T03:09:32.273Z,0.00
2019-06-20T03:10:32.271Z,0.00
2019-06-20T03:11:32.247Z,0.00
2019-06-20T03:12:32.238Z,0.00
2019-06-20T03:13:32.283Z,0.00
2019-06-20T03:14:44.544Z,0.00
2019-06-20T03:15:32.239Z,0.00
2019-06-20T03:16:32.244Z,0.00
2019-06-20T03:17:32.238Z,0.00
2019-06-20T03:18:32.243Z,0.81
2019-06-20T03:19:32.282Z,0.03
2019-06-20T03:20:32.224Z,0.06
2019-06-20T03:21:32.242Z,0.00
2019-06-20T03:22:32.253Z,0.00
2019-06-20T03:23:32.238Z,0.88
2019-06-20T03:24:32.296Z,1.23
2019-06-20T03:25:32.288Z,1.22
2019-06-20T03:26:32.244Z,1.18
2019-06-20T03:27:32.286Z,0.81
2019-06-20T03:28:32.277Z,0.91
2019-06-20T03:29:32.230Z,0.56
2019-06-20T03:30:32.312Z,0.54
2019-06-20T03:31:32.291Z,0.32
2019-06-20T03:32:32.300Z,0.47
2019-06-20T03:33:32.302Z,0.97
2019-06-20T03:34:32.272Z,0.48
2019-06-20T03:35:32.273Z,0.36
2019-06-20T03:36:32.311Z,0.44
2019-06-20T03:37:32.296Z,0.02
2019-06-20T03:38:32.262Z,0.04
2019-06-20T03:39:32.302Z,0.43
2019-06-20T03:40:32.276Z,0.02
2019-06-20T03:41:32.252Z,0.00
2019-06-20T03:42:32.298Z,0.56
2019-06-20T03:43:32.304Z,0.32
2019-06-20T03:44:32.275Z,0.00
2019-06-20T03:45:32.310Z,0.00
2019-06-20T03:46:32.308Z,0.00
2019-06-20T03:47:32.267Z,0.00
2019-06-20T03:48:32.309Z,0.00
2019-06-20T03:49:32.301Z,0.00
2019-06-20T03:50:32.255Z,0.07
2019-06-20T03:51:32.308Z,0.43
2019-06-20T03:52:32.263Z,0.41
2019-06-20T03:53:32.284Z,0.78
2019-06-20T03:54:32.320Z,1.18
2019-06-20T03:55:32.316Z,0.17
2019-06-20T03:56:32.266Z,0.01
2019-06-20T03:57:32.310Z,0.01
2019-06-20T03:58:32.289Z,1.02
2019-06-20T03:59:32.298Z,0.93
2019-06-20T04:00:32.303Z,1.23
2019-06-20T04:01:32.318Z,0.98
2019-06-20T04:02:32.261Z,1.28
2019-06-20T04:03:32.283Z,0.91
2019-06-20T04:04:32.300Z,1.42
2019-06-20T04:05:32.269Z,0.57
2019-06-20T04:06:32.338Z,0.90
2019-06-20T04:07:32.327Z,0.68
2019-06-20T04:08:32.281Z,0.17
2019-06-20T04:09:32.331Z,0.00
2019-06-20T04:10:32.314Z,0.44
2019-06-20T04:11:32.279Z,0.11
2019-06-20T04:12:32.355Z,0.00
2019-06-20T04:13:32.335Z,0.01
2019-06-20T04:14:32.280Z,0.49
2019-06-20T04:15:32.345Z,1.05
2019-06-20T04:16:32.342Z,1.43
2019-06-20T04:17:32.305Z,1.21
2019-06-20T04:18:32.368Z,0.61
2019-06-20T04:19:32.327Z,0.76
2019-06-20T04:20:32.281Z,0.77
2019-06-20T04:21:32.356Z,1.16
2019-06-20T04:22:32.320Z,1.23
2019-06-20T04:23:32.292Z,1.13
2019-06-20T04:24:32.325Z,0.52
2019-06-20T04:25:32.340Z,0.20
2019-06-20T04:26:32.295Z,0.00
2019-06-20T04:27:32.336Z,0.15
2019-06-20T04:28:32.328Z,0.85
2019-06-20T04:29:35.787Z,1.17
2019-06-20T04:30:32.499Z,1.00
2019-06-20T04:31:32.345Z,1.13
2019-06-20T04:32:32.312Z,1.01
2019-06-20T04:33:32.350Z,0.49
2019-06-20T04:34:32.317Z,0.30
2019-06-20T04:35:32.302Z,0.93
2019-06-20T04:36:32.326Z,0.84
2019-06-20T04:37:32.562Z,1.08
2019-06-20T04:38:32.297Z,0.96
2019-06-20T04:39:32.306Z,0.58
2019-06-20T04:40:32.328Z,0.82
2019-06-20T04:41:32.304Z,0.60
2019-06-20T04:42:32.382Z,0.42
2019-06-20T04:43:32.346Z,0.63
2019-06-20T04:44:32.325Z,0.85
2019-06-20T04:45:35.489Z,0.20
2019-06-20T04:46:32.336Z,0.00
2019-06-20T04:47:32.315Z,0.00
2019-06-20T04:48:32.341Z,0.33
2019-06-20T04:49:32.337Z,0.05
2019-06-20T04:50:32.288Z,0.00
2019-06-20T04:51:32.324Z,0.00
2019-06-20T04:52:32.333Z,0.01
2019-06-20T04:53:32.310Z,0.76
2019-06-20T04:54:32.384Z,1.14
2019-06-20T04:55:32.368Z,1.80
2019-06-20T04:56:32.334Z,1.45
2019-06-20T04:57:32.373Z,0.72
2019-06-20T04:58:32.356Z,0.09
2019-06-20T04:59:32.349Z,0.79
2019-06-20T05:00:32.350Z,1.30
2019-06-20T05:01:32.370Z,1.78
2019-06-20T05:02:32.311Z,1.38
2019-06-20T05:03:32.372Z,1.08
2019-06-20T05:04:32.356Z,0.57
2019-06-20T05:05:32.330Z,0.01
2019-06-20T05:06:32.370Z,0.05
2019-06-20T05:07:32.370Z,0.01
2019-06-20T05:08:32.343Z,0.42
2019-06-20T05:09:32.372Z,0.29
2019-06-20T05:10:32.370Z,0.06
2019-06-20T05:11:32.344Z,0.75
2019-06-20T05:12:32.822Z,0.10
2019-06-20T05:13:32.389Z,0.38
2019-06-20T05:14:32.350Z,0.29
2019-06-20T05:15:32.380Z,0.00
2019-06-20T05:16:32.380Z,0.00
2019-06-20T05:17:32.337Z,0.00
2019-06-20T05:18:32.381Z,0.11
2019-06-20T05:19:32.354Z,0.09
2019-06-20T05:20:32.328Z,0.10
2019-06-20T05:21:32.340Z,0.27
2019-06-20T05:22:32.372Z,0.98
2019-06-20T05:23:32.317Z,0.97
2019-06-20T05:24:32.391Z,1.27
2019-06-20T05:25:32.376Z,1.10
2019-06-20T05:26:32.332Z,1.65
2019-06-20T05:27:32.356Z,1.59
2019-06-20T05:28:32.342Z,1.42
2019-06-20T05:29:32.337Z,0.95
2019-06-20T05:30:32.403Z,0.13
2019-06-20T05:31:32.368Z,0.07
2019-06-20T05:32:32.360Z,0.00
2019-06-20T05:33:32.380Z,0.90
2019-06-20T05:34:32.349Z,1.42
2019-06-20T05:35:32.365Z,0.79
2019-06-20T05:36:32.412Z,0.69
2019-06-20T05:37:32.373Z,0.16
2019-06-20T05:38:32.349Z,0.33
2019-06-20T05:39:32.380Z,0.68
2019-06-20T05:40:32.365Z,0.99
2019-06-20T05:41:32.338Z,0.88
2019-06-20T05:42:32.426Z,0.56
2019-06-20T05:43:32.406Z,0.01
2019-06-20T05:44:32.331Z,0.02
2019-06-20T05:45:32.393Z,0.70
2019-06-20T05:46:32.364Z,1.24
2019-06-20T05:47:32.352Z,0.92
2019-06-20T05:48:32.400Z,0.03
2019-06-20T05:49:32.397Z,0.91
2019-06-20T05:50:32.388Z,0.69
2019-06-20T05:51:32.428Z,0.49
2019-06-20T05:52:32.394Z,0.25
2019-06-20T05:53:32.369Z,0.65
2019-06-20T05:54:32.440Z,0.49
2019-06-20T05:55:32.948Z,1.04
2019-06-20T05:56:32.363Z,0.56
2019-06-20T05:57:32.422Z,0.00
2019-06-20T05:58:32.934Z,0.12
2019-06-20T05:59:32.361Z,0.44
2019-06-20T06:00:32.447Z,0.37
2019-06-20T06:01:32.442Z,0.55
2019-06-20T06:02:32.373Z,0.26
2019-06-20T06:03:32.416Z,0.32
2019-06-20T06:04:32.401Z,0.89
2019-06-20T06:05:32.368Z,0.41
2019-06-20T06:06:32.413Z,1.25
2019-06-20T06:07:32.430Z,0.56
2019-06-20T06:08:32.385Z,0.73
2019-06-20T06:09:32.413Z,0.75
2019-06-20T06:10:32.398Z,0.54
2019-06-20T06:11:32.381Z,0.03
2019-06-20T06:12:32.430Z,0.12
2019-06-20T06:13:32.414Z,0.77
2019-06-20T06:14:32.396Z,0.99
2019-06-20T06:15:32.407Z,0.85
2019-06-20T06:16:32.424Z,0.87
2019-06-20T06:17:32.390Z,0.55
2019-06-20T06:18:32.456Z,1.41
2019-06-20T06:19:32.435Z,1.60
2019-06-20T06:20:32.402Z,1.18
2019-06-20T06:21:32.402Z,0.84
2019-06-20T06:22:32.458Z,1.55
2019-06-20T06:23:32.432Z,1.11
2019-06-20T06:24:32.468Z,0.65
2019-06-20T06:25:32.521Z,1.09
2019-06-20T06:26:32.518Z,0.46
2019-06-20T06:27:32.537Z,1.41
2019-06-20T06:28:32.519Z,1.15
2019-06-20T06:29:32.507Z,1.86
2019-06-20T06:30:32.632Z,1.00
2019-06-20T06:31:32.579Z,0.58
2019-06-20T06:32:40.166Z,1.15
2019-06-20T06:33:32.546Z,2.20
2019-06-20T06:34:32.586Z,0.41
2019-06-20T06:35:32.566Z,1.28
2019-06-20T06:36:32.589Z,1.41
2019-06-20T06:37:32.608Z,1.41
2019-06-20T06:38:32.583Z,1.72
2019-06-20T06:39:32.568Z,0.52
2019-06-20T06:40:32.569Z,0.56
2019-06-20T06:41:32.574Z,1.12
2019-06-20T06:42:32.630Z,0.83
2019-06-20T06:43:32.596Z,0.96
2019-06-20T06:44:32.570Z,0.80
2019-06-20T06:45:32.591Z,1.92
2019-06-20T06:46:43.670Z,1.48
2019-06-20T06:47:32.569Z,1.40
2019-06-20T06:48:32.590Z,1.46
2019-06-20T06:49:32.573Z,0.98
2019-06-20T06:50:32.588Z,1.54
2019-06-20T06:51:32.623Z,1.83
2019-06-20T06:52:32.579Z,2.00
2019-06-20T06:53:32.583Z,3.13
2019-06-20T06:54:32.586Z,1.32
2019-06-20T06:55:32.613Z,1.76
2019-06-20T06:56:32.625Z,2.18
2019-06-20T06:57:32.584Z,1.64
2019-06-20T06:58:32.609Z,2.03
2019-06-20T06:59:32.565Z,2.03
2019-06-20T07:00:32.604Z,1.56
2019-06-20T07:01:32.621Z,0.70
2019-06-20T07:02:32.546Z,1.18
2019-06-20T07:03:32.595Z,1.82
2019-06-20T07:04:32.592Z,2.09
2019-06-20T07:05:32.567Z,2.34
2019-06-20T07:06:32.622Z,0.84
2019-06-20T07:07:32.662Z,1.11
2019-06-20T07:08:32.589Z,1.10
2019-06-20T07:09:35.424Z,1.64
2019-06-20T07:10:32.620Z,1.61
2019-06-20T07:11:32.578Z,0.60
2019-06-20T07:12:32.587Z,0.88
2019-06-20T07:13:32.629Z,0.24
2019-06-20T07:14:32.619Z,0.75
2019-06-20T07:15:32.671Z,1.27
2019-06-20T07:16:32.587Z,0.83
2019-06-20T07:17:32.593Z,1.07
2019-06-20T07:18:32.606Z,0.52
2019-06-20T07:19:32.601Z,1.41
2019-06-20T07:20:32.606Z,1.80
2019-06-20T07:21:32.669Z,0.81
2019-06-20T07:22:32.607Z,2.39
2019-06-20T07:23:32.607Z,2.60
2019-06-20T07:24:32.682Z,0.97
2019-06-20T07:25:32.620Z,1.28
2019-06-20T07:26:32.578Z,1.14
2019-06-20T07:27:32.611Z,0.83
2019-06-20T07:28:32.619Z,0.17
2019-06-20T07:29:32.618Z,1.30
2019-06-20T07:30:32.638Z,0.37
2019-06-20T07:31:32.701Z,1.14
2019-06-20T07:32:32.580Z,1.27
2019-06-20T07:33:32.623Z,0.70
2019-06-20T07:34:32.616Z,1.52
2019-06-20T07:35:33.123Z,1.86
2019-06-20T07:36:32.662Z,0.89
2019-06-20T07:37:32.643Z,0.67
2019-06-20T07:38:32.655Z,0.47
2019-06-20T07:39:32.638Z,0.46
2019-06-20T07:40:32.643Z,1.39
2019-06-20T07:41:32.617Z,2.02
2019-06-20T07:42:32.645Z,1.98
2019-06-20T07:43:32.685Z,1.80
2019-06-20T07:44:32.624Z,0.75
2019-06-20T07:45:32.672Z,0.54
2019-06-20T07:46:32.663Z,0.66
2019-06-20T07:47:32.620Z,1.20
2019-06-20T07:48:32.689Z,1.81
2019-06-20T07:49:32.658Z,1.52
2019-06-20T07:50:32.615Z,1.36
2019-06-20T07:51:32.637Z,2.32
2019-06-20T07:52:32.662Z,1.02
2019-06-20T07:53:32.627Z,0.55
2019-06-20T07:54:32.668Z,0.82
2019-06-20T07:55:32.781Z,1.14
2019-06-20T07:56:32.643Z,2.24
2019-06-20T07:57:32.674Z,1.41
2019-06-20T07:58:32.680Z,0.97
2019-06-20T07:59:32.620Z,1.21
2019-06-20T08:00:32.694Z,2.18
2019-06-20T08:01:32.668Z,1.93
2019-06-20T08:02:32.693Z,1.57
2019-06-20T08:03:32.709Z,2.08
2019-06-20T08:04:32.695Z,2.06
2019-06-20T08:05:32.641Z,1.76
2019-06-20T08:06:32.735Z,1.79
2019-06-20T08:07:32.685Z,1.69
2019-06-20T08:08:32.627Z,1.97
2019-06-20T08:09:44.302Z,0.60
2019-06-20T08:10:32.673Z,1.56
2019-06-20T08:11:32.631Z,1.19
2019-06-20T08:12:32.671Z,1.64
2019-06-20T08:13:32.720Z,3.84
2019-06-20T08:14:32.666Z,2.58
2019-06-20T08:15:32.698Z,1.51
2019-06-20T08:16:32.779Z,2.75
2019-06-20T08:17:35.256Z,1.70
2019-06-20T08:18:32.677Z,2.45
2019-06-20T08:19:32.690Z,1.22
2019-06-20T08:20:32.695Z,0.60
2019-06-20T08:21:32.673Z,1.65
2019-06-20T08:22:32.681Z,1.99
2019-06-20T08:23:32.668Z,2.19
2019-06-20T08:24:32.713Z,1.47
2019-06-20T08:25:32.709Z,0.79
2019-06-20T08:26:32.700Z,1.71
2019-06-20T08:27:32.681Z,1.71
2019-06-20T08:28:32.693Z,1.94
2019-06-20T08:29:32.651Z,1.68
2019-06-20T08:30:32.684Z,2.25
2019-06-20T08:31:32.711Z,1.86
2019-06-20T08:32:32.674Z,1.84
2019-06-20T08:33:32.681Z,1.27
2019-06-20T08:34:32.677Z,1.46
2019-06-20T08:35:32.678Z,1.82
2019-06-20T08:36:32.735Z,1.50
2019-06-20T08:37:32.724Z,1.50
2019-06-20T08:38:32.685Z,0.78
2019-06-20T08:39:32.701Z,0.61
2019-06-20T08:40:32.676Z,2.70
2019-06-20T08:41:32.713Z,1.49
2019-06-20T08:42:32.734Z,1.39
2019-06-20T08:43:32.776Z,1.07
2019-06-20T08:44:32.722Z,0.63
2019-06-20T08:45:32.734Z,2.26
2019-06-20T08:46:32.720Z,0.88
2019-06-20T08:47:32.709Z,0.97
2019-06-20T08:48:32.692Z,3.73
2019-06-20T08:49:32.716Z,0.93
2019-06-20T08:50:32.685Z,1.84
2019-06-20T08:51:32.732Z,1.84
2019-06-20T08:52:32.720Z,2.19
2019-06-20T08:53:32.708Z,1.90
2019-06-20T08:54:32.728Z,2.97
2019-06-20T08:55:32.726Z,2.29
2019-06-20T08:56:32.692Z,2.01
2019-06-20T08:57:32.728Z,2.16
2019-06-20T08:58:32.731Z,3.12
2019-06-20T08:59:32.703Z,1.82
2019-06-20T09:00:32.743Z,1.63
2019-06-20T09:01:32.710Z,2.20
2019-06-20T09:02:32.679Z,2.46
2019-06-20T09:03:32.716Z,2.73
2019-06-20T09:04:32.720Z,1.71
2019-06-20T09:05:32.700Z,1.46
2019-06-20T09:06:32.768Z,1.78
2019-06-20T09:07:32.739Z,1.22
2019-06-20T09:08:32.762Z,0.96
2019-06-20T09:09:32.765Z,0.25
2019-06-20T09:10:32.726Z,0.97
2019-06-20T09:11:32.701Z,2.54
2019-06-20T09:12:32.778Z,2.76
2019-06-20T09:13:32.799Z,1.63
2019-06-20T09:14:32.713Z,2.13
2019-06-20T09:15:32.740Z,2.68
2019-06-20T09:16:32.736Z,1.38
2019-06-20T09:17:32.742Z,2.24
2019-06-20T09:18:32.774Z,2.81
2019-06-20T09:19:32.766Z,1.56
2019-06-20T09:20:32.751Z,1.87
2019-06-20T09:21:32.785Z,2.88
2019-06-20T09:22:32.753Z,2.40
2019-06-20T09:23:35.632Z,2.20
2019-06-20T09:24:32.795Z,0.77
2019-06-20T09:25:32.788Z,1.51
2019-06-20T09:26:32.746Z,3.13
2019-06-20T09:27:32.735Z,0.94
2019-06-20T09:28:32.748Z,1.87
2019-06-20T09:29:41.357Z,1.26
2019-06-20T09:30:32.742Z,1.74
2019-06-20T09:31:32.811Z,1.14
2019-06-20T09:32:32.738Z,1.26
2019-06-20T09:33:32.813Z,3.66
2019-06-20T09:34:32.752Z,2.93
2019-06-20T09:35:32.733Z,2.57
2019-06-20T09:36:32.767Z,1.56
2019-06-20T09:37:32.760Z,1.33
2019-06-20T09:38:32.740Z,1.90
2019-06-20T09:39:32.734Z,1.02
2019-06-20T09:40:32.802Z,1.96
2019-06-20T09:41:32.741Z,1.96
2019-06-20T09:42:32.803Z,2.79
2019-06-20T09:43:32.790Z,1.49
2019-06-20T09:44:32.755Z,2.81
2019-06-20T09:45:32.745Z,1.61
2019-06-20T09:46:32.786Z,1.46
2019-06-20T09:47:32.799Z,0.71
2019-06-20T09:48:32.795Z,2.39
2019-06-20T09:49:32.805Z,2.65
2019-06-20T09:50:32.764Z,1.98
2019-06-20T09:51:32.763Z,1.27
2019-06-20T09:52:32.779Z,2.48
2019-06-20T09:53:32.754Z,2.61
2019-06-20T09:54:32.835Z,1.17
2019-06-20T09:55:32.807Z,0.73
2019-06-20T09:56:32.762Z,0.96
2019-06-20T09:57:32.802Z,1.18
2019-06-20T09:58:32.807Z,1.15
2019-06-20T09:59:32.765Z,1.59
2019-06-20T10:00:32.784Z,1.18
2019-06-20T10:01:32.853Z,1.23
2019-06-20T10:02:32.758Z,2.30
2019-06-20T10:03:32.839Z,0.77
2019-06-20T10:04:32.802Z,1.95
2019-06-20T10:05:32.805Z,2.35
2019-06-20T10:06:32.857Z,2.00
2019-06-20T10:07:32.811Z,2.42
2019-06-20T10:08:32.762Z,2.01
2019-06-20T10:09:32.827Z,1.63
2019-06-20T10:10:32.798Z,1.01
2019-06-20T10:11:32.779Z,3.06
2019-06-20T10:12:32.840Z,3.73
2019-06-20T10:13:32.940Z,2.96
2019-06-20T10:14:32.827Z,2.84
2019-06-20T10:15:32.846Z,1.70
2019-06-20T10:16:45.248Z,1.61
2019-06-20T10:17:32.789Z,1.90
2019-06-20T10:18:32.811Z,2.49
2019-06-20T10:19:32.837Z,3.25
2019-06-20T10:20:32.817Z,2.98
2019-06-20T10:21:32.836Z,1.42
2019-06-20T10:22:32.790Z,1.57
2019-06-20T10:23:32.784Z,1.47
2019-06-20T10:24:32.845Z,1.88
2019-06-20T10:25:32.828Z,1.14
2019-06-20T10:26:32.793Z,1.69
2019-06-20T10:27:32.819Z,2.71
2019-06-20T10:28:32.795Z,3.03
2019-06-20T10:29:32.791Z,2.20
2019-06-20T10:30:32.869Z,1.68
2019-06-20T10:31:32.842Z,1.59
2019-06-20T10:32:32.848Z,2.19
2019-06-20T10:33:32.851Z,2.54
2019-06-20T10:34:32.839Z,1.57
2019-06-20T10:35:32.803Z,1.91
2019-06-20T10:36:32.894Z,1.34
2019-06-20T10:37:32.857Z,2.04
2019-06-20T10:38:32.784Z,0.91
2019-06-20T10:39:32.838Z,1.27
2019-06-20T10:40:32.854Z,1.83
2019-06-20T10:41:32.818Z,2.98
2019-06-20T10:42:32.845Z,1.58
2019-06-20T10:43:32.867Z,1.30
2019-06-20T10:44:32.817Z,1.37
2019-06-20T10:45:32.830Z,1.61
2019-06-20T10:46:32.828Z,1.85
2019-06-20T10:47:35.932Z,2.88
2019-06-20T10:48:32.878Z,1.87
2019-06-20T10:49:32.874Z,1.78
2019-06-20T10:50:32.795Z,1.18
2019-06-20T10:51:32.881Z,2.51
2019-06-20T10:52:32.846Z,2.17
2019-06-20T10:53:32.828Z,2.71
2019-06-20T10:54:32.867Z,1.20
2019-06-20T10:55:32.862Z,1.22
2019-06-20T10:56:32.805Z,1.79
2019-06-20T10:57:32.887Z,1.83
2019-06-20T10:58:32.878Z,1.50
2019-06-20T10:59:32.852Z,1.30
2019-06-20T11:00:32.894Z,1.64
2019-06-20T11:01:32.862Z,1.31
2019-06-20T11:02:32.818Z,1.21
2019-06-20T11:03:32.852Z,1.75
2019-06-20T11:04:32.845Z,2.18
2019-06-20T11:05:32.868Z,2.53
2019-06-20T11:06:32.877Z,2.70
2019-06-20T11:07:32.889Z,1.12
2019-06-20T11:08:32.869Z,3.41
2019-06-20T11:09:32.853Z,1.50
2019-06-20T11:10:32.835Z,1.44
2019-06-20T11:11:32.845Z,1.29
2019-06-20T11:12:42.867Z,3.05
2019-06-20T11:13:32.861Z,1.72
2019-06-20T11:14:32.847Z,5.40
2019-06-20T11:15:32.881Z,1.73
2019-06-20T11:16:32.854Z,2.95
2019-06-20T11:17:32.852Z,4.07
2019-06-20T11:18:32.922Z,2.65
2019-06-20T11:19:32.891Z,3.90
2019-06-20T11:20:32.850Z,1.48
2019-06-20T11:21:32.864Z,2.14
2019-06-20T11:22:32.860Z,1.12
2019-06-20T11:23:32.862Z,1.47
2019-06-20T11:24:32.916Z,2.03
2019-06-20T11:25:32.883Z,2.24
2019-06-20T11:26:32.836Z,2.16
2019-06-20T11:27:32.888Z,2.06
2019-06-20T11:28:32.865Z,1.57
2019-06-20T11:29:32.844Z,0.99
2019-06-20T11:30:44.844Z,1.54
2019-06-20T11:31:32.894Z,1.33
2019-06-20T11:32:33.148Z,1.29
2019-06-20T11:33:32.911Z,1.30
2019-06-20T11:34:32.909Z,2.07
2019-06-20T11:35:32.851Z,0.92
2019-06-20T11:36:32.915Z,1.45
2019-06-20T11:37:32.912Z,0.78
2019-06-20T11:38:32.869Z,1.80
2019-06-20T11:39:32.902Z,0.81
2019-06-20T11:40:32.876Z,1.71
2019-06-20T11:41:32.865Z,0.99
2019-06-20T11:42:32.928Z,0.74
2019-06-20T11:43:34.606Z,0.88
2019-06-20T11:44:32.869Z,2.06
2019-06-20T11:45:35.477Z,2.29
2019-06-20T11:46:35.284Z,2.68
2019-06-20T11:47:34.921Z,1.58
2019-06-20T11:48:35.178Z,1.99
2019-06-20T11:49:34.581Z,1.45
2019-06-20T11:50:34.470Z,1.79
2019-06-20T11:51:34.315Z,1.84
2019-06-20T11:52:36.895Z,1.46
2019-06-20T11:53:33.657Z,0.85
2019-06-20T11:54:34.322Z,0.18
2019-06-20T11:55:32.920Z,0.62
2019-06-20T11:56:32.878Z,0.75
2019-06-20T11:57:32.986Z,0.89
2019-06-20T11:58:33.315Z,0.72
2019-06-20T11:59:32.899Z,0.84
2019-06-20T12:00:32.925Z,0.53
2019-06-20T12:01:33.284Z,0.91
2019-06-20T12:02:32.900Z,0.55
2019-06-20T12:03:32.914Z,1.14
2019-06-20T12:04:32.913Z,1.03
2019-06-20T12:05:32.883Z,1.46
2019-06-20T12:06:32.927Z,0.76
2019-06-20T12:07:33.482Z,1.91
2019-06-20T12:08:34.077Z,1.95
2019-06-20T12:09:32.975Z,1.82
2019-06-20T12:10:32.955Z,2.27
2019-06-20T12:11:32.907Z,1.61
2019-06-20T12:12:32.957Z,3.80
2019-06-20T12:13:32.944Z,1.22
2019-06-20T12:14:32.923Z,0.31
2019-06-20T12:15:32.943Z,0.76
2019-06-20T12:16:32.959Z,1.16
2019-06-20T12:17:32.895Z,1.93
2019-06-20T12:18:33.002Z,0.53
2019-06-20T12:19:32.943Z,0.72
2019-06-20T12:20:32.925Z,1.59
2019-06-20T12:21:32.971Z,1.60
2019-06-20T12:22:32.948Z,0.75
2019-06-20T12:23:32.952Z,1.57
2019-06-20T12:24:32.977Z,1.50
2019-06-20T12:25:32.936Z,0.89
2019-06-20T12:26:32.918Z,1.30
2019-06-20T12:27:32.949Z,0.48
2019-06-20T12:28:32.947Z,1.19
2019-06-20T12:29:32.968Z,0.89
2019-06-20T12:30:32.994Z,0.74
2019-06-20T12:31:32.956Z,0.33
2019-06-20T12:32:32.922Z,0.60
2019-06-20T12:33:32.954Z,1.39
2019-06-20T12:34:32.984Z,0.50
2019-06-20T12:35:32.980Z,0.58
2019-06-20T12:36:32.993Z,0.90
2019-06-20T12:37:32.963Z,1.31
2019-06-20T12:38:32.929Z,1.55
2019-06-20T12:39:32.967Z,0.31
2019-06-20T12:40:32.963Z,0.89
2019-06-20T12:41:32.952Z,0.64
2019-06-20T12:42:33.009Z,0.81
2019-06-20T12:43:32.991Z,0.47
2019-06-20T12:44:32.956Z,0.96
2019-06-20T12:45:33.019Z,0.66
2019-06-20T12:46:32.968Z,0.67
2019-06-20T12:47:32.995Z,0.05
2019-06-20T12:48:32.983Z,0.12
2019-06-20T12:49:32.990Z,0.14
2019-06-20T12:50:33.111Z,0.00
2019-06-20T12:51:32.988Z,0.00
2019-06-20T12:52:32.971Z,0.02
2019-06-20T12:53:32.965Z,0.14
2019-06-20T12:54:33.031Z,0.30
2019-06-20T12:55:33.221Z,0.37
2019-06-20T12:56:33.136Z,0.15
2019-06-20T12:57:33.012Z,0.05
2019-06-20T12:58:33.007Z,0.52
2019-06-20T12:59:32.987Z,0.19
2019-06-20T13:00:33.106Z,0.00
2019-06-20T13:01:36.959Z,0.00
2019-06-20T13:02:32.982Z,0.00
2019-06-20T13:03:33.021Z,0.00
2019-06-20T13:04:33.033Z,0.26
2019-06-20T13:05:33.024Z,0.20
2019-06-20T13:06:33.040Z,0.11
2019-06-20T13:07:33.044Z,0.17
2019-06-20T13:08:33.007Z,0.42
2019-06-20T13:09:33.042Z,0.05
2019-06-20T13:10:33.006Z,0.27
2019-06-20T13:11:33.014Z,0.63
2019-06-20T13:12:33.487Z,0.35
2019-06-20T13:13:33.039Z,0.59
2019-06-20T13:14:33.015Z,0.89
2019-06-20T13:15:33.052Z,0.68
2019-06-20T13:16:33.036Z,0.47
2019-06-20T13:17:33.044Z,0.03
2019-06-20T13:18:33.041Z,0.00